AirNav   Airventure
 
 329 users online  

MO69 Baptist Medical Center Heliport
Kansas City, Missouri, USA

GOING TO KANSAS CITY?


FAA INFORMATION EFFECTIVE 20 JULY 2017

Location

FAA Identifier: MO69
Lat/Long: 39-00-26.9400N / 094-34-41.5500W
39-00.449000N / 094-34.692500W
39.0074833 / -94.5782083
(estimated)
Elevation: 170 ft. / 52 m (estimated)
Variation: 05E (1985)
Time zone: UTC -5 (UTC -6 during Standard Time)
Zip code: 64131

Heliport Operations

Heliport use: Private use, MEDICAL USE.
Activation date: 08/1989
Control tower: no
ARTCC: KANSAS CITY CENTER
FSS: COLUMBIA FLIGHT SERVICE STATION
Attendance: CONTINUOUS
Wind indicator: lighted
Segmented circle: no
Lights: SS-SR

Heliport Communications

WX ASOS at MKC (7 nm N): PHONE 816-329-2843
WX ASOS at LXT (10 nm E): 124.175 (816-347-9807)
WX ASOS at OJC (12 nm SW): PHONE 913-780-6969
WX ASOS at IXD (18 nm SW): 135.325 (913-780-6987)
WX ASOS at MCI (19 nm N): PHONE 816-329-2808

Nearby radio navigation aids

VOR radial/distance  VOR name  Freq  Var
RISr168/6.8RIVERSIDE VOR/DME111.4005E
MCIr151/18.2KANSAS CITY VORTAC113.2505E
ANXr249/21.6NAPOLEON VORTAC114.0007E

Heliport Services

Runway Information

Helipad H1

Dimensions: 60 x 60 ft. / 18 x 18 m
Surface: concrete
Runway edge lights: PERIMETER LGTS.
Latitude: 39-00.449000N
Longitude: 094-34.692500W
Elevation: 170.0 ft.
Traffic pattern: leftleft

Heliport Ownership and Management from official FAA records

Ownership: Privately-owned
Owner: BAPTIST MEDICAL CENTER
6601 ROCKHILL ROAD
KANSAS CITY, MO 64131
Phone 816-276-7000
Manager: ED STANTON
6601 ROCKHILL ROAD
KANSAS CITY, MO 64131
Phone 816-276-7071

Additional Remarks

A52-H1 70' BLDG 155' SE; 200' TREES 50' SW; 50' PLINES 20' N.

Instrument Procedures

There are no published instrument procedures at MO69.

Some nearby airports with instrument procedures:

KMKC - Charles B Wheeler Downtown Airport (7 nm N)
KLXT - Lee's Summit Municipal Airport (10 nm E)
KOJC - Johnson County Executive Airport (12 nm SW)
3GV - East Kansas City Airport (17 nm E)
KIXD - New Century AirCenter Airport (18 nm SW)
KMCI - Kansas City International Airport (19 nm N)
 
Loc | Ops | Rwys | IFR | FBO | Links
Com | Nav | Svcs | Stats | Notes

Kansas City Aviation Department
 
Area around MO69 (Baptist Medical Center Heliport)
 
Road maps at: MapQuest Bing Google
 
Aerial photo
No photo
 
Sectional chart

 
Airport distance calculator
Flying to Baptist Medical Center Heliport? Find the distance to fly.

From to MO69

Sunrise and sunset
Times for 25-Jul-2017
 Local
(UTC-5)
 Zulu
(UTC)
Morning civil twilight05:4410:44
Sunrise06:1411:14
Sunset20:3601:36
Evening civil twilight21:0602:06

Current date and time
Zulu (UTC)  25-Jul-2017 09:37:53
Local (UTC-5)  25-Jul-2017 04:37:53
 
METAR
KMKC 
7nm N 
250854Z 11006KT 10SM CLR 24/19 A3003 RMK AO2 SLP159 T02390194 58002
KLXT 
10nm E 
250853Z AUTO 13007KT 10SM CLR 23/19 A3005 RMK AO2 SLP165 T02280194 56004
KOJC 
12nm SW 
250853Z AUTO 13006KT 10SM CLR 22/19 A3004 RMK AO2 SLP162 T02170194 57004
KIXD 
18nm SW 
250853Z AUTO 11004KT 10SM CLR 22/19 A3004 RMK AO2 SLP160 T02220194 58004
KMCI 
19nm N 
250853Z 13008KT 10SM FEW200 23/19 A3004 RMK AO2 SLP161 T02280189 55001
TAF
KMKC 
7nm N 
250520Z 2506/2606 10006KT P6SM FEW250 FM251500 15006KT P6SM FEW250
KIXD 
18nm SW 
250520Z 2506/2606 12006KT P6SM FEW250 FM251300 16006KT P6SM FEW250
KMCI 
19nm N 
250520Z 2506/2606 11006KT P6SM FEW250 FM251400 15007KT P6SM FEW250
NOTAMs
Click for the latest NOTAMs
NOTAMs are issued by the DoD/FAA and will open in a separate window not controlled by AirNav.

 

 
 

Would you like to see your business listed on this page?

 If your business provides an interesting product or service to pilots, flight crews, aircraft, or users of the Baptist Medical Center Heliport, you should consider listing it here.  To start the listing process, click on the button below
 
Add a business
 

Other Pages about Baptist Medical Center Heliport

Update a link
 
Copyright © AirNav, LLC. All rights reserved. Privacy Policy  Contact